Terminal Aerodrome Forecast
Issued by NWS

Home | Current Version | Previous Version | Text Only | Print | Product List | Glossary On
Versions: 1 2 3 4 5 6 7 8 9 10 11 12 13 14 15 16 17 18 19
000
FTUS41 KBTV 241736
TAFMPV
TAF
KMPV 241736Z 2418/2518 17010KT P6SM SCT110
     FM242300 00000KT P6SM BKN090
     FM250300 17005KT P6SM SCT080
     FM251200 14009G19KT P6SM BKN200
     FM251600 13014G24KT P6SM VCSH OVC070=

USA.gov is the U.S. government's official web portal to all federal, state and local government web resources and services.